Terminal Aerodrome Forecast
Issued by NWS

Home | Current Version | Previous Version | Text Only | Print | Product List | Glossary On
Versions: 1 2 3 4 5 6 7 8 9 10 11 12 13 14 15 16 17 18 19 20 21 22 23 24 25
000
FTUS45 KLKN 301720
TAFWMC
TAF
KWMC 301720Z 3018/3118 32020G30KT 3SM -SN SCT008 BKN045
     FM302100 33025G35KT 1 1/2SM -SN BR BKN015
     FM310100 33015G25KT P6SM VCSH SCT025 BKN040
     FM311300 32015G25KT P6SM SCT040 BKN060=

USA.gov is the U.S. government's official web portal to all federal, state and local government web resources and services.